createdAt,value
2023-03-18T00:01:07.436Z,100648.09
2023-03-18T00:03:37.498Z,100651.97
2023-03-18T00:06:15.872Z,100645.22
2023-03-18T00:08:45.389Z,100653.44
2023-03-18T00:11:15.678Z,100656.25
2023-03-18T00:13:43.600Z,100654.56
2023-03-18T00:16:12.347Z,100644.91
2023-03-18T00:18:41.676Z,100653.63
2023-03-18T00:21:09.703Z,100643.25
2023-03-18T00:23:37.056Z,100642.34
2023-03-18T00:26:05.576Z,100649.44
2023-03-18T00:28:32.743Z,100651.28
2023-03-18T00:31:08.608Z,100647.88
2023-03-18T00:33:38.208Z,100648.06
2023-03-18T00:36:10.217Z,100662.00
2023-03-18T00:38:37.491Z,100662.13
2023-03-18T00:41:11.937Z,100670.03
2023-03-18T00:43:54.722Z,100676.31
2023-03-18T00:46:27.924Z,100669.41
2023-03-18T00:49:02.091Z,100675.66
2023-03-18T00:51:32.969Z,100672.34
2023-03-18T00:54:06.567Z,100668.94
2023-03-18T00:56:37.573Z,100673.47
2023-03-18T00:59:07.282Z,100681.47
2023-03-18T01:01:34.829Z,100674.53
2023-03-18T01:04:02.644Z,100678.09
2023-03-18T01:06:34.008Z,100672.06
2023-03-18T01:09:02.689Z,100672.97
2023-03-18T01:11:30.599Z,100673.94
2023-03-18T01:13:59.402Z,100681.06
2023-03-18T01:16:26.798Z,100683.72
2023-03-18T01:18:54.273Z,100687.28
2023-03-18T01:21:22.414Z,100684.56
2023-03-18T01:23:54.322Z,100680.28
2023-03-18T01:26:22.185Z,100689.91
2023-03-18T01:28:49.455Z,100688.19
2023-03-18T01:31:16.627Z,100684.66
2023-03-18T01:33:46.125Z,100692.59
2023-03-18T01:36:13.637Z,100689.91
2023-03-18T01:38:42.425Z,100687.28
2023-03-18T01:41:12.447Z,100686.34
2023-03-18T01:43:42.793Z,100685.44
2023-03-18T01:46:37.391Z,100684.50
2023-03-18T01:49:14.672Z,100687.94
2023-03-18T01:51:53.154Z,100688.75
2023-03-18T01:54:24.008Z,100686.94
2023-03-18T01:56:53.835Z,100674.56
2023-03-18T01:59:26.788Z,100682.50
2023-03-18T02:02:10.284Z,100677.28
2023-03-18T02:04:53.688Z,100676.53
2023-03-18T02:07:25.851Z,100673.91
2023-03-18T02:09:54.504Z,100673.91
2023-03-18T02:12:33.526Z,100669.53
2023-03-18T02:15:07.481Z,100666.97
2023-03-18T02:17:41.919Z,100665.28
2023-03-18T02:20:53.516Z,100661.72
2023-03-18T02:23:51.446Z,100680.31
2023-03-18T02:26:36.200Z,100686.63
2023-03-18T02:29:08.901Z,100683.19
2023-03-18T02:31:47.267Z,100677.09
2023-03-18T02:34:15.807Z,100678.00
2023-03-18T02:36:44.047Z,100684.25
2023-03-18T02:39:16.325Z,100680.78
2023-03-18T02:41:44.779Z,100682.63
2023-03-18T02:44:12.632Z,100688.81
2023-03-18T02:47:04.090Z,100686.28
2023-03-18T02:49:32.586Z,100689.81
2023-03-18T02:52:00.715Z,100697.75
2023-03-18T02:54:30.573Z,100696.81
2023-03-18T02:56:58.073Z,100704.75
2023-03-18T02:59:26.718Z,100708.25
2023-03-18T03:01:55.735Z,100715.31
2023-03-18T03:04:25.700Z,100717.00
2023-03-18T03:06:56.675Z,100719.66
2023-03-18T03:09:36.082Z,100712.72
2023-03-18T03:12:05.313Z,100719.75
2023-03-18T03:14:32.356Z,100715.44
2023-03-18T03:17:02.630Z,100720.66
2023-03-18T03:19:30.829Z,100726.84
2023-03-18T03:21:58.800Z,100733.94
2023-03-18T03:24:26.468Z,100728.75
2023-03-18T03:26:53.561Z,100720.91
2023-03-18T03:29:20.790Z,100722.72
2023-03-18T03:31:49.906Z,100728.03
2023-03-18T03:34:16.870Z,100728.09
2023-03-18T03:36:44.612Z,100724.69
2023-03-18T03:39:12.433Z,100725.72
2023-03-18T03:41:39.674Z,100734.59
2023-03-18T03:44:07.382Z,100733.91
2023-03-18T03:46:35.928Z,100748.97
2023-03-18T03:49:03.801Z,100744.66
2023-03-18T03:51:30.692Z,100747.38
2023-03-18T03:53:58.047Z,100753.50
2023-03-18T03:56:25.172Z,100750.84
2023-03-18T03:58:52.311Z,100757.84
2023-03-18T04:01:20.264Z,100748.22
2023-03-18T04:03:49.568Z,100752.63
2023-03-18T04:06:20.348Z,100757.84
2023-03-18T04:08:56.532Z,100762.31
2023-03-18T04:11:23.870Z,100763.19
2023-03-18T04:13:51.648Z,100755.34
2023-03-18T04:16:18.681Z,100760.63
2023-03-18T04:18:46.908Z,100762.38
2023-03-18T04:21:14.745Z,100769.44
2023-03-18T04:23:49.982Z,100762.44
2023-03-18T04:26:17.158Z,100765.97
2023-03-18T04:28:44.439Z,100769.53
2023-03-18T04:31:15.440Z,100768.66
2023-03-18T04:33:44.695Z,100764.31
2023-03-18T04:36:11.923Z,100769.69
2023-03-18T04:38:39.969Z,100779.34
2023-03-18T04:41:07.234Z,100783.84
2023-03-18T04:43:34.576Z,100783.03
2023-03-18T04:46:01.972Z,100779.50
2023-03-18T04:48:30.532Z,100776.88
2023-03-18T04:50:59.750Z,100776.09
2023-03-18T04:55:58.108Z,100765.72
2023-03-18T04:58:32.459Z,100772.81
2023-03-18T05:01:08.574Z,100772.88
2023-03-18T05:03:37.882Z,100779.94
2023-03-18T05:06:09.359Z,100768.50
2023-03-18T05:08:49.351Z,100787.03
2023-03-18T05:11:16.885Z,100784.41
2023-03-18T05:13:43.807Z,100786.22
2023-03-18T05:16:12.704Z,100791.47
2023-03-18T05:18:41.111Z,100786.22
2023-03-18T05:21:10.087Z,100796.75
2023-03-18T05:23:39.539Z,100793.28
2023-03-18T05:26:06.751Z,100799.44
2023-03-18T05:28:34.346Z,100793.28
2023-03-18T05:31:11.300Z,100793.28
2023-03-18T05:33:42.505Z,100792.44
2023-03-18T05:36:11.230Z,100800.31
2023-03-18T05:38:47.870Z,100804.72
2023-03-18T05:41:15.011Z,100801.28
2023-03-18T05:43:42.790Z,100803.00
2023-03-18T05:46:10.101Z,100798.56
2023-03-18T05:48:56.577Z,100802.13
2023-03-18T05:51:28.038Z,100801.28
2023-03-18T05:53:56.528Z,100809.13
2023-03-18T05:56:28.423Z,100814.38
2023-03-18T05:58:59.182Z,100813.44
2023-03-18T06:01:33.404Z,100815.16
2023-03-18T06:04:02.251Z,100811.59
2023-03-18T06:06:30.638Z,100808.97
2023-03-18T06:08:58.489Z,100819.50
2023-03-18T06:11:27.124Z,100815.97
2023-03-18T06:13:54.393Z,100826.53
2023-03-18T06:16:23.211Z,100843.22
2023-03-18T06:18:53.644Z,100844.00
2023-03-18T06:21:20.612Z,100836.06
2023-03-18T06:23:48.033Z,100845.72
2023-03-18T06:26:15.367Z,100838.66
2023-03-18T06:28:47.946Z,100845.59
2023-03-18T06:31:17.697Z,100845.56
2023-03-18T06:33:45.269Z,100841.09
2023-03-18T06:36:16.590Z,100841.91
2023-03-18T06:38:50.877Z,100835.69
2023-03-18T06:41:18.680Z,100832.03
2023-03-18T06:43:58.481Z,100823.16
2023-03-18T06:46:26.661Z,100829.38
2023-03-18T06:48:54.508Z,100845.38
2023-03-18T06:51:25.699Z,100849.72
2023-03-18T06:53:53.477Z,100842.56
2023-03-18T06:56:22.144Z,100847.63
2023-03-18T06:59:10.876Z,100847.56
2023-03-18T07:01:38.783Z,100849.50
2023-03-18T07:04:06.984Z,100850.56
2023-03-18T07:06:34.500Z,100841.81
2023-03-18T07:09:01.490Z,100858.41
2023-03-18T07:11:29.777Z,100852.06
2023-03-18T07:13:58.695Z,100859.78
2023-03-18T07:16:32.699Z,100862.19
2023-03-18T07:19:00.156Z,100862.78
2023-03-18T07:21:30.038Z,100865.16
2023-03-18T07:23:57.003Z,100868.47
2023-03-18T07:26:25.823Z,100876.09
2023-03-18T07:28:52.727Z,100888.16
2023-03-18T07:31:20.069Z,100883.53
2023-03-18T07:33:47.060Z,100884.09
2023-03-18T07:36:14.197Z,100888.94
2023-03-18T07:38:41.267Z,100883.41
2023-03-18T07:41:08.370Z,100890.09
2023-03-18T07:43:36.731Z,100888.75
2023-03-18T07:46:04.525Z,100895.06
2023-03-18T07:48:34.175Z,100890.00
2023-03-18T07:51:02.274Z,100904.56
2023-03-18T07:53:29.254Z,100909.50
2023-03-18T07:55:56.452Z,100904.69
2023-03-18T07:58:24.647Z,100907.69
2023-03-18T08:00:52.761Z,100913.22
2023-03-18T08:03:19.780Z,100902.91
2023-03-18T08:05:47.338Z,100912.44
2023-03-18T08:08:14.333Z,100912.31
2023-03-18T08:10:41.464Z,100920.13
2023-03-18T08:13:08.456Z,100924.06
2023-03-18T08:15:35.527Z,100925.59
2023-03-18T08:18:02.689Z,100923.66
2023-03-18T08:20:29.659Z,100921.94
2023-03-18T08:22:57.125Z,100923.66
2023-03-18T08:25:24.915Z,100927.34
2023-03-18T08:27:52.365Z,100927.56
2023-03-18T08:30:19.965Z,100924.25
2023-03-18T08:32:47.052Z,100927.91
2023-03-18T08:35:14.399Z,100926.03
2023-03-18T08:37:41.440Z,100919.69
2023-03-18T08:40:09.825Z,100922.34
2023-03-18T08:42:36.908Z,100911.84
2023-03-18T08:45:04.854Z,100912.59
2023-03-18T08:47:32.377Z,100912.41
2023-03-18T08:49:59.362Z,100920.19
2023-03-18T08:52:26.308Z,100921.63
2023-03-18T08:54:53.197Z,100925.84
2023-03-18T08:57:20.134Z,100929.00
2023-03-18T08:59:47.042Z,100933.03
2023-03-18T09:02:18.413Z,100925.53
2023-03-18T09:04:46.119Z,100927.06
2023-03-18T09:07:14.729Z,100930.50
2023-03-18T09:09:43.961Z,100929.63
2023-03-18T09:12:12.508Z,100927.06
2023-03-18T09:14:40.839Z,100929.78
2023-03-18T09:17:08.952Z,100922.84
2023-03-18T09:19:36.608Z,100916.84
2023-03-18T09:22:03.666Z,100933.97
2023-03-18T09:24:30.585Z,100926.25
2023-03-18T09:26:59.719Z,100929.06
2023-03-18T09:29:27.592Z,100933.34
2023-03-18T09:31:55.630Z,100931.13
2023-03-18T09:34:22.825Z,100924.28
2023-03-18T09:36:51.557Z,100927.75
2023-03-18T09:39:20.364Z,100935.97
2023-03-18T09:41:59.640Z,100929.34
2023-03-18T09:44:33.678Z,100929.16
2023-03-18T09:47:30.998Z,100936.34
2023-03-18T09:50:27.668Z,100941.69
2023-03-18T09:53:22.475Z,100947.56
2023-03-18T09:55:57.167Z,100944.28
2023-03-18T09:58:44.252Z,100954.66
2023-03-18T10:01:13.702Z,100951.69
2023-03-18T10:03:53.685Z,100944.63
2023-03-18T10:06:24.719Z,100951.50
2023-03-18T10:08:57.343Z,100955.81
2023-03-18T10:11:42.914Z,100954.16
2023-03-18T10:14:42.334Z,100956.25
2023-03-18T10:17:32.642Z,100955.53
2023-03-18T10:20:04.855Z,100952.38
2023-03-18T10:22:45.234Z,100953.56
2023-03-18T10:25:22.360Z,100945.94
2023-03-18T10:28:10.630Z,100952.88
2023-03-18T10:30:57.545Z,100960.88
2023-03-18T10:33:54.988Z,100951.09
2023-03-18T10:36:59.412Z,100940.47
2023-03-18T10:39:29.391Z,100942.19
2023-03-18T10:42:01.824Z,100945.19
2023-03-18T10:44:41.511Z,100935.59
2023-03-18T10:47:15.412Z,100943.66
2023-03-18T10:50:13.475Z,100936.50
2023-03-18T10:53:30.458Z,100938.63
2023-03-18T10:56:08.664Z,100937.84
2023-03-18T10:58:37.915Z,100940.53
2023-03-18T11:01:12.458Z,100935.03
2023-03-18T11:04:06.197Z,100942.88
2023-03-18T11:06:43.198Z,100932.09
2023-03-18T11:09:16.552Z,100934.63
2023-03-18T11:11:50.115Z,100932.19
2023-03-18T11:14:22.935Z,100930.81
2023-03-18T11:16:59.799Z,100929.16
2023-03-18T11:19:32.035Z,100919.69
2023-03-18T11:22:17.621Z,100924.97
2023-03-18T11:24:45.082Z,100919.69
2023-03-18T11:27:16.058Z,100913.03
2023-03-18T11:30:16.668Z,100910.78
2023-03-18T11:33:03.093Z,100913.56
2023-03-18T11:36:05.605Z,100919.31
2023-03-18T11:38:36.550Z,100916.25
2023-03-18T11:41:24.107Z,100893.19
2023-03-18T11:44:14.350Z,100903.69
2023-03-18T11:46:53.447Z,100907.88
2023-03-18T11:49:25.959Z,100918.09
2023-03-18T11:52:31.381Z,100920.72
2023-03-18T11:55:04.268Z,100913.94
2023-03-18T11:58:08.668Z,100920.25
2023-03-18T12:00:55.807Z,100926.59
2023-03-18T12:04:16.947Z,100924.88
2023-03-18T12:07:25.352Z,100935.53
2023-03-18T12:10:15.180Z,100925.56
2023-03-18T12:13:03.584Z,100924.06
2023-03-18T12:16:11.122Z,100921.81
2023-03-18T12:19:28.326Z,100916.78
2023-03-18T12:22:33.778Z,100925.56
2023-03-18T12:25:35.112Z,100921.19
2023-03-18T12:28:37.180Z,100932.72
2023-03-18T12:31:29.234Z,100928.72
2023-03-18T12:34:01.397Z,100921.97
2023-03-18T12:36:56.318Z,100925.88
2023-03-18T12:39:52.374Z,100924.91
2023-03-18T12:42:59.630Z,100927.13
2023-03-18T12:45:37.612Z,100922.34
2023-03-18T12:48:16.248Z,100921.50
2023-03-18T12:50:53.930Z,100926.47
2023-03-18T12:53:33.498Z,100921.28
2023-03-18T12:56:17.936Z,100915.34
2023-03-18T12:58:55.884Z,100919.09
2023-03-18T13:01:49.477Z,100920.25
2023-03-18T13:04:24.665Z,100914.75
2023-03-18T13:07:15.758Z,100915.75
2023-03-18T13:09:51.227Z,100924.72
2023-03-18T13:12:26.586Z,100928.50
2023-03-18T13:15:30.999Z,100926.75
2023-03-18T13:18:12.384Z,100919.63
2023-03-18T13:20:42.960Z,100921.75
2023-03-18T13:23:18.893Z,100929.06
2023-03-18T13:26:05.357Z,100922.84
2023-03-18T13:29:01.579Z,100923.06
2023-03-18T13:32:08.566Z,100929.66
2023-03-18T13:35:15.974Z,100931.22
2023-03-18T13:38:38.987Z,100928.88
2023-03-18T13:41:12.144Z,100925.72
2023-03-18T13:43:49.223Z,100914.94
2023-03-18T13:46:23.706Z,100919.16
2023-03-18T13:48:57.263Z,100922.25
2023-03-18T13:51:24.214Z,100919.03
2023-03-18T13:53:57.163Z,100919.75
2023-03-18T13:56:47.644Z,100918.88
2023-03-18T13:59:32.845Z,100915.97
2023-03-18T14:02:45.587Z,100917.22
2023-03-18T14:05:33.212Z,100914.22
2023-03-18T14:08:06.230Z,100904.44
2023-03-18T14:10:33.408Z,100897.81
2023-03-18T14:13:27.897Z,100893.03
2023-03-18T14:15:59.418Z,100892.94
2023-03-18T14:18:28.371Z,100892.56
2023-03-18T14:21:01.587Z,100889.63
2023-03-18T14:23:39.578Z,100885.84
2023-03-18T14:26:23.394Z,100889.97
2023-03-18T14:29:16.255Z,100896.06
2023-03-18T14:31:43.275Z,100887.94
2023-03-18T14:34:14.829Z,100892.59
2023-03-18T14:36:54.034Z,100885.97
2023-03-18T14:39:38.471Z,100882.25
2023-03-18T14:42:43.803Z,100883.75
2023-03-18T14:45:33.480Z,100876.88
2023-03-18T14:48:14.714Z,100866.69
2023-03-18T14:50:49.494Z,100861.16
2023-03-18T14:53:42.803Z,100862.91
2023-03-18T14:56:21.954Z,100863.03
2023-03-18T14:58:56.406Z,100866.84
2023-03-18T15:01:33.864Z,100861.72
2023-03-18T15:04:02.507Z,100864.47
2023-03-18T15:06:30.620Z,100855.63
2023-03-18T15:09:13.303Z,100851.88
2023-03-18T15:11:44.445Z,100857.13
2023-03-18T15:14:19.717Z,100860.97
2023-03-18T15:16:53.428Z,100858.88
2023-03-18T15:19:22.465Z,100854.47
2023-03-18T15:21:51.295Z,100855.25
2023-03-18T15:24:26.114Z,100853.16
2023-03-18T15:27:04.644Z,100856.19
2023-03-18T15:29:37.271Z,100859.88
2023-03-18T15:32:20.797Z,100852.91
2023-03-18T15:35:13.706Z,100859.34
2023-03-18T15:37:44.001Z,100854.47
2023-03-18T15:40:32.874Z,100861.38
2023-03-18T15:43:08.975Z,100861.91
2023-03-18T15:45:45.404Z,100858.50
2023-03-18T15:48:40.307Z,100856.13
2023-03-18T15:51:47.846Z,100855.38
2023-03-18T15:54:24.833Z,100861.59
2023-03-18T15:56:55.145Z,100858.00
2023-03-18T15:59:28.687Z,100855.72
2023-03-18T16:01:57.745Z,100857.91
2023-03-18T16:04:30.792Z,100854.47
2023-03-18T16:06:57.842Z,100845.41
2023-03-18T16:09:26.620Z,100845.41
2023-03-18T16:12:00.506Z,100850.88
2023-03-18T16:14:49.233Z,100847.94
2023-03-18T16:17:21.821Z,100852.03
2023-03-18T16:19:54.161Z,100861.53
2023-03-18T16:22:22.025Z,100851.59
2023-03-18T16:24:49.480Z,100857.41
2023-03-18T16:27:34.611Z,100851.88
2023-03-18T16:30:01.932Z,100852.50
2023-03-18T16:32:29.080Z,100858.97
2023-03-18T16:34:56.148Z,100849.84
2023-03-18T16:37:26.872Z,100855.94
2023-03-18T16:39:55.880Z,100851.28
2023-03-18T16:42:25.868Z,100850.97
2023-03-18T16:44:53.288Z,100849.38
2023-03-18T16:47:25.470Z,100845.25
2023-03-18T16:49:53.024Z,100856.34
2023-03-18T16:52:20.036Z,100850.41
2023-03-18T16:54:46.990Z,100851.44
2023-03-18T16:57:21.498Z,100855.13
2023-03-18T16:59:59.180Z,100854.38
2023-03-18T17:02:34.794Z,100850.81
2023-03-18T17:05:02.318Z,100850.72
2023-03-18T17:07:29.655Z,100856.78
2023-03-18T17:09:56.786Z,100852.09
2023-03-18T17:12:24.805Z,100852.78
2023-03-18T17:14:58.374Z,100852.56
2023-03-18T17:17:29.937Z,100857.63
2023-03-18T17:19:57.668Z,100857.28
2023-03-18T17:22:31.025Z,100867.50
2023-03-18T17:25:02.720Z,100863.66
2023-03-18T17:27:34.797Z,100858.91
2023-03-18T17:30:02.049Z,100858.47
2023-03-18T17:32:29.252Z,100869.53
2023-03-18T17:34:56.671Z,100870.00
2023-03-18T17:37:23.742Z,100872.22
2023-03-18T17:39:50.714Z,100870.97
2023-03-18T17:42:31.409Z,100873.25
2023-03-18T17:45:16.773Z,100875.50
2023-03-18T17:47:43.839Z,100881.38
2023-03-18T17:50:18.618Z,100877.31
2023-03-18T17:52:49.421Z,100883.09
2023-03-18T17:55:23.981Z,100878.22
2023-03-18T17:57:51.032Z,100877.81
2023-03-18T18:00:24.325Z,100884.34
2023-03-18T18:02:54.675Z,100881.19
2023-03-18T18:05:23.505Z,100879.00
2023-03-18T18:07:51.430Z,100884.66
2023-03-18T18:10:20.705Z,100877.94
2023-03-18T18:12:49.828Z,100884.44
2023-03-18T18:15:26.760Z,100880.41
2023-03-18T18:17:55.610Z,100893.00
2023-03-18T18:20:24.300Z,100888.88
2023-03-18T18:22:56.031Z,100893.53
2023-03-18T18:25:29.652Z,100893.81
2023-03-18T18:27:56.700Z,100898.47
2023-03-18T18:30:26.194Z,100896.97
2023-03-18T18:32:53.611Z,100898.06
2023-03-18T18:35:25.059Z,100906.09
2023-03-18T18:37:52.071Z,100905.44
2023-03-18T18:40:20.277Z,100906.53
2023-03-18T18:42:47.741Z,100911.94
2023-03-18T18:45:20.947Z,100913.94
2023-03-18T18:47:48.268Z,100921.97
2023-03-18T18:50:19.772Z,100909.72
2023-03-18T18:52:47.587Z,100908.81
2023-03-18T18:55:15.406Z,100913.06
2023-03-18T18:57:42.894Z,100917.34
2023-03-18T19:00:21.959Z,100918.97
2023-03-18T19:02:53.290Z,100917.00
2023-03-18T19:05:20.325Z,100924.75
2023-03-18T19:07:47.305Z,100922.84
2023-03-18T19:10:17.549Z,100920.03
2023-03-18T19:12:44.821Z,100917.25
2023-03-18T19:15:15.271Z,100912.66
2023-03-18T19:17:43.438Z,100915.97
2023-03-18T19:20:29.710Z,100921.91
2023-03-18T19:22:57.594Z,100915.63
2023-03-18T19:25:25.685Z,100912.81
2023-03-18T19:27:54.805Z,100918.00
2023-03-18T19:30:24.277Z,100920.63
2023-03-18T19:32:52.179Z,100918.75
2023-03-18T19:35:19.281Z,100919.56
2023-03-18T19:37:48.357Z,100930.88
2023-03-18T19:40:30.200Z,100924.66
2023-03-18T19:42:57.379Z,100919.38
2023-03-18T19:45:24.523Z,100919.28
2023-03-18T19:47:52.025Z,100920.94
2023-03-18T19:50:21.496Z,100918.09
2023-03-18T19:52:48.865Z,100919.75
2023-03-18T19:55:17.332Z,100929.44
2023-03-18T19:57:48.096Z,100913.56
2023-03-18T20:00:25.664Z,100922.28
2023-03-18T20:02:53.670Z,100927.59
2023-03-18T20:05:23.808Z,100921.44
2023-03-18T20:07:50.963Z,100924.94
2023-03-18T20:10:20.132Z,100929.25
2023-03-18T20:12:50.915Z,100939.72
2023-03-18T20:15:22.399Z,100985.41
2023-03-18T20:17:51.880Z,100993.03
2023-03-18T20:20:23.831Z,100974.50
2023-03-18T20:23:04.468Z,100995.75
2023-03-18T20:25:40.411Z,100998.47
2023-03-18T20:28:16.409Z,100998.47
2023-03-18T20:30:45.295Z,101007.25
2023-03-18T20:33:12.290Z,101012.53
2023-03-18T20:35:43.790Z,101009.97
2023-03-18T20:38:32.033Z,101002.88
2023-03-18T20:40:59.938Z,101003.78
2023-03-18T20:43:28.471Z,100996.84
2023-03-18T20:45:58.446Z,101002.13
2023-03-18T20:48:25.693Z,101001.31
2023-03-18T20:50:53.354Z,101001.41
2023-03-18T20:53:28.109Z,101001.50
2023-03-18T20:55:55.837Z,101004.31
2023-03-18T20:58:27.426Z,100993.91
2023-03-18T21:00:55.268Z,100999.38
2023-03-18T21:03:31.053Z,101005.69
2023-03-18T21:06:01.526Z,101005.69
2023-03-18T21:08:30.308Z,101006.63
2023-03-18T21:11:01.702Z,101001.44
2023-03-18T21:13:36.031Z,101004.13
2023-03-18T21:16:12.071Z,100995.41
2023-03-18T21:18:41.605Z,100991.13
2023-03-18T21:21:19.419Z,100994.78
2023-03-18T21:23:46.437Z,100996.66
2023-03-18T21:26:13.461Z,100989.81
2023-03-18T21:28:40.452Z,100991.81
2023-03-18T21:31:28.519Z,100994.63
2023-03-18T21:33:57.433Z,100986.88
2023-03-18T21:36:24.557Z,100986.22
2023-03-18T21:38:51.770Z,100979.28
2023-03-18T21:41:27.943Z,100982.91
2023-03-18T21:43:55.841Z,100978.59
2023-03-18T21:46:26.911Z,100970.75
2023-03-18T21:48:55.548Z,100973.41
2023-03-18T21:51:38.048Z,100968.13
2023-03-18T21:54:17.247Z,100960.31
2023-03-18T21:56:44.324Z,100963.91
2023-03-18T21:59:11.408Z,100960.53
2023-03-18T22:01:38.437Z,100961.50
2023-03-18T22:04:05.611Z,100958.97
2023-03-18T22:06:33.459Z,100964.34
2023-03-18T22:09:00.496Z,100961.88
2023-03-18T22:11:27.673Z,100966.47
2023-03-18T22:13:55.173Z,100956.16
2023-03-18T22:16:22.636Z,100963.47
2023-03-18T22:18:49.674Z,100961.09
2023-03-18T22:21:27.648Z,100952.50
2023-03-18T22:23:55.618Z,100951.00
2023-03-18T22:26:22.990Z,100946.81
2023-03-18T22:28:50.899Z,100941.63
2023-03-18T22:31:26.990Z,100946.94
2023-03-18T22:33:54.782Z,100949.56
2023-03-18T22:36:22.561Z,100947.81
2023-03-18T22:38:49.951Z,100960.97
2023-03-18T22:41:30.289Z,100985.47
2023-03-18T22:44:00.005Z,100997.69
2023-03-18T22:46:28.500Z,101004.59
2023-03-18T22:48:55.937Z,101000.09
2023-03-18T22:51:39.379Z,100995.63
2023-03-18T22:54:06.397Z,101001.81
2023-03-18T22:56:33.584Z,101004.47
2023-03-18T22:59:02.947Z,101002.53
2023-03-18T23:01:31.618Z,100998.88
2023-03-18T23:03:58.880Z,100997.00
2023-03-18T23:06:27.118Z,101002.97
2023-03-18T23:08:54.367Z,101000.19
2023-03-18T23:11:21.392Z,100989.53
2023-03-18T23:13:50.684Z,100995.56
2023-03-18T23:16:23.174Z,100995.47
2023-03-18T23:18:51.268Z,100984.91
2023-03-18T23:21:23.286Z,100982.19
2023-03-18T23:23:52.470Z,100987.53
2023-03-18T23:26:20.497Z,100984.97
2023-03-18T23:28:49.015Z,100989.44
2023-03-18T23:31:16.544Z,100989.47
2023-03-18T23:33:44.379Z,100993.97
2023-03-18T23:36:12.241Z,100986.06
2023-03-18T23:38:39.537Z,100991.41
2023-03-18T23:41:07.347Z,100989.75
2023-03-18T23:43:34.664Z,100992.38
2023-03-18T23:46:02.275Z,100982.75
2023-03-18T23:48:29.930Z,100989.91
2023-03-18T23:50:56.954Z,100983.94
2023-03-18T23:53:23.896Z,100986.81
2023-03-18T23:55:51.029Z,100983.56
2023-03-18T23:58:18.102Z,100977.56
